createdAt,value
2022-11-16T00:05:10.280Z,95806.28
2022-11-16T00:07:36.861Z,95792.72
2022-11-16T00:10:03.421Z,95803.03
2022-11-16T00:12:29.860Z,95788.69
2022-11-16T00:14:56.316Z,95778.34
2022-11-16T00:17:22.816Z,95786.72
2022-11-16T00:19:49.245Z,95770.41
2022-11-16T00:22:15.709Z,95773.97
2022-11-16T00:24:42.151Z,95774.59
2022-11-16T00:27:08.580Z,95778.81
2022-11-16T00:29:35.030Z,95779.47
2022-11-16T00:32:01.614Z,95776.88
2022-11-16T00:34:28.057Z,95782.88
2022-11-16T00:36:54.578Z,95780.28
2022-11-16T00:39:21.012Z,95777.53
2022-11-16T00:41:47.655Z,95774.94
2022-11-16T00:44:14.178Z,95770.41
2022-11-16T00:46:40.606Z,95769.44
2022-11-16T00:49:07.164Z,95775.25
2022-11-16T00:51:34.090Z,95765.72
2022-11-16T00:54:00.630Z,95758.13
2022-11-16T00:56:27.067Z,95749.72
2022-11-16T00:58:53.494Z,95755.06
2022-11-16T01:01:22.301Z,95757.00
2022-11-16T01:03:48.811Z,95756.19
2022-11-16T01:06:15.653Z,95750.38
2022-11-16T01:08:42.229Z,95749.56
2022-11-16T01:11:27.486Z,95743.91
2022-11-16T01:13:55.226Z,95734.06
2022-11-16T01:16:21.974Z,95738.44
2022-11-16T01:18:48.981Z,95724.19
2022-11-16T01:21:15.419Z,95739.88
2022-11-16T01:23:41.902Z,95730.66
2022-11-16T01:26:08.486Z,95718.84
2022-11-16T01:28:35.184Z,95712.22
2022-11-16T01:31:01.867Z,95709.78
2022-11-16T01:33:29.619Z,95707.38
2022-11-16T01:39:17.676Z,95701.06
2022-11-16T01:41:44.118Z,95700.25
2022-11-16T01:44:30.133Z,95694.91
2022-11-16T01:46:56.551Z,95695.91
2022-11-16T01:49:23.075Z,95695.09
2022-11-16T01:51:50.133Z,95693.16
2022-11-16T01:54:16.617Z,95699.16
2022-11-16T01:56:43.600Z,95690.59
2022-11-16T01:59:10.060Z,95700.94
2022-11-16T02:01:36.537Z,95692.69
2022-11-16T02:04:02.976Z,95685.91
2022-11-16T02:06:33.475Z,95682.50
2022-11-16T02:09:27.823Z,95679.25
2022-11-16T02:12:00.356Z,95676.69
2022-11-16T02:14:37.696Z,95665.38
2022-11-16T02:17:22.824Z,95667.16
2022-11-16T02:19:49.257Z,95662.63
2022-11-16T02:22:18.671Z,95661.97
2022-11-16T02:25:05.641Z,95661.16
2022-11-16T02:27:35.150Z,95657.78
2022-11-16T02:30:01.623Z,95656.16
2022-11-16T02:32:34.119Z,95652.63
2022-11-16T02:35:08.412Z,95653.28
2022-11-16T02:37:36.183Z,95649.72
2022-11-16T02:40:03.461Z,95656.16
2022-11-16T02:42:34.568Z,95656.66
2022-11-16T02:45:01.216Z,95646.81
2022-11-16T02:47:28.956Z,95646.81
2022-11-16T02:49:56.346Z,95651.19
2022-11-16T02:52:22.848Z,95645.34
2022-11-16T02:54:49.305Z,95641.97
2022-11-16T02:57:27.949Z,95650.03
2022-11-16T02:59:54.957Z,95648.59
2022-11-16T03:02:27.440Z,95651.97
2022-11-16T03:04:55.513Z,95638.44
2022-11-16T03:07:24.201Z,95639.22
2022-11-16T03:09:50.729Z,95644.41
2022-11-16T03:12:18.644Z,95642.63
2022-11-16T03:14:47.706Z,95632.91
2022-11-16T03:17:16.207Z,95630.50
2022-11-16T03:19:48.920Z,95625.78
2022-11-16T03:22:26.587Z,95625.00
2022-11-16T03:24:53.038Z,95626.78
2022-11-16T03:27:19.443Z,95616.44
2022-11-16T03:29:47.786Z,95620.00
2022-11-16T03:32:14.249Z,95623.38
2022-11-16T03:34:40.731Z,95624.38
2022-11-16T03:37:07.175Z,95621.94
2022-11-16T03:39:34.152Z,95616.59
2022-11-16T03:42:00.842Z,95614.66
2022-11-16T03:44:38.752Z,95603.53
2022-11-16T03:47:05.168Z,95603.34
2022-11-16T03:49:31.632Z,95609.50
2022-11-16T03:51:58.203Z,95611.28
2022-11-16T03:54:24.661Z,95602.72
2022-11-16T03:56:51.081Z,95603.53
2022-11-16T03:59:17.723Z,95605.28
2022-11-16T04:01:45.015Z,95607.06
2022-11-16T04:04:31.638Z,95607.88
2022-11-16T04:07:16.798Z,95601.75
2022-11-16T04:10:02.001Z,95603.34
2022-11-16T04:12:47.178Z,95599.16
2022-11-16T04:15:32.379Z,95596.09
2022-11-16T04:18:17.431Z,95591.25
2022-11-16T04:21:02.634Z,95576.91
2022-11-16T04:23:47.774Z,95585.63
2022-11-16T04:26:14.376Z,95582.38
2022-11-16T04:28:40.863Z,95585.31
2022-11-16T04:31:25.974Z,95579.47
2022-11-16T04:34:11.015Z,95581.25
2022-11-16T04:36:56.080Z,95583.03
2022-11-16T04:39:22.498Z,95583.84
2022-11-16T04:42:07.828Z,95583.03
2022-11-16T04:44:53.518Z,95575.94
2022-11-16T04:47:19.957Z,95580.28
2022-11-16T04:49:46.390Z,95581.13
2022-11-16T04:52:12.819Z,95580.44
2022-11-16T04:54:39.254Z,95578.03
2022-11-16T04:57:05.687Z,95580.78
2022-11-16T04:59:32.102Z,95569.97
2022-11-16T05:02:10.854Z,95566.09
2022-11-16T05:04:37.887Z,95567.06
2022-11-16T05:07:04.458Z,95573.53
2022-11-16T05:09:30.960Z,95571.59
2022-11-16T05:11:57.417Z,95563.03
2022-11-16T05:14:23.878Z,95569.50
2022-11-16T05:16:50.888Z,95569.50
2022-11-16T05:19:36.085Z,95574.84
2022-11-16T05:22:03.580Z,95569.84
2022-11-16T05:24:36.556Z,95575.00
2022-11-16T05:27:08.833Z,95565.47
2022-11-16T05:29:36.357Z,95556.41
2022-11-16T05:32:03.002Z,95555.94
2022-11-16T05:35:00.644Z,95549.19
2022-11-16T05:37:29.202Z,95548.06
2022-11-16T05:39:57.108Z,95539.81
2022-11-16T05:42:24.367Z,95542.06
2022-11-16T05:44:51.304Z,95538.06
2022-11-16T05:47:17.786Z,95531.59
2022-11-16T05:49:44.246Z,95531.09
2022-11-16T05:52:10.895Z,95531.91
2022-11-16T05:54:37.316Z,95531.91
2022-11-16T05:57:03.789Z,95522.88
2022-11-16T05:59:30.269Z,95526.91
2022-11-16T06:01:59.141Z,95525.28
2022-11-16T06:04:26.012Z,95520.28
2022-11-16T06:06:52.480Z,95519.31
2022-11-16T06:09:18.978Z,95524.16
2022-11-16T06:11:45.409Z,95530.75
2022-11-16T06:14:11.924Z,95534.81
2022-11-16T06:16:38.368Z,95529.47
2022-11-16T06:19:04.848Z,95522.38
2022-11-16T06:21:31.546Z,95528.19
2022-11-16T06:23:58.194Z,95523.66
2022-11-16T06:26:24.700Z,95526.88
2022-11-16T06:28:51.185Z,95524.16
2022-11-16T06:31:17.628Z,95524.78
2022-11-16T06:33:44.080Z,95523.97
2022-11-16T06:36:10.494Z,95518.81
2022-11-16T06:38:37.268Z,95512.69
2022-11-16T06:41:03.938Z,95516.88
2022-11-16T06:43:30.444Z,95509.94
2022-11-16T06:45:58.252Z,95508.00
2022-11-16T06:48:24.721Z,95506.22
2022-11-16T06:50:52.000Z,95509.44
2022-11-16T06:53:18.522Z,95504.63
2022-11-16T06:55:45.015Z,95510.72
2022-11-16T06:58:11.534Z,95511.69
2022-11-16T07:00:37.994Z,95509.28
2022-11-16T07:03:04.463Z,95517.03
2022-11-16T07:05:31.304Z,95515.91
2022-11-16T07:07:57.805Z,95509.94
2022-11-16T07:10:24.220Z,95515.09
2022-11-16T07:12:50.703Z,95514.94
2022-11-16T07:15:17.191Z,95513.97
2022-11-16T07:17:43.733Z,95519.13
2022-11-16T07:20:12.080Z,95513.97
2022-11-16T07:22:38.596Z,95501.69
2022-11-16T07:25:05.242Z,95499.09
2022-11-16T07:27:41.024Z,95503.16
2022-11-16T07:30:07.783Z,95502.00
2022-11-16T07:32:34.250Z,95501.84
2022-11-16T07:35:00.868Z,95498.94
2022-11-16T07:37:27.300Z,95496.34
2022-11-16T07:39:54.563Z,95502.16
2022-11-16T07:42:21.183Z,95511.03
2022-11-16T07:44:47.672Z,95506.03
2022-11-16T07:47:14.126Z,95502.63
2022-11-16T07:49:40.615Z,95506.81
2022-11-16T07:52:10.389Z,95511.03
2022-11-16T07:54:37.062Z,95498.91
2022-11-16T07:57:03.530Z,95497.78
2022-11-16T07:59:30.035Z,95504.69
2022-11-16T08:01:56.698Z,95501.16
2022-11-16T08:04:23.274Z,95497.59
2022-11-16T08:06:51.853Z,95498.41
2022-11-16T08:09:18.495Z,95492.09
2022-11-16T08:11:44.982Z,95497.75
2022-11-16T08:14:11.636Z,95496.13
2022-11-16T08:16:38.150Z,95502.28
2022-11-16T08:19:04.779Z,95495.16
2022-11-16T08:21:31.237Z,95489.03
2022-11-16T08:23:58.821Z,95490.63
2022-11-16T08:26:25.700Z,95494.81
2022-11-16T08:28:53.996Z,95492.41
2022-11-16T08:31:22.348Z,95493.72
2022-11-16T08:33:48.828Z,95498.06
2022-11-16T08:36:18.329Z,95495.19
2022-11-16T08:38:45.201Z,95498.91
2022-11-16T08:41:12.102Z,95494.72
2022-11-16T08:43:40.422Z,95500.06
2022-11-16T08:46:07.608Z,95497.31
2022-11-16T08:48:34.566Z,95490.19
2022-11-16T08:51:20.846Z,95484.69
2022-11-16T08:53:48.685Z,95480.97
2022-11-16T08:56:15.687Z,95477.41
2022-11-16T08:58:47.220Z,95472.53
2022-11-16T09:01:17.745Z,95482.69
2022-11-16T09:03:44.489Z,95486.72
2022-11-16T09:06:10.935Z,95486.59
2022-11-16T09:08:38.057Z,95470.91
2022-11-16T09:11:04.939Z,95481.53
2022-11-16T09:13:31.414Z,95471.50
2022-11-16T09:15:58.230Z,95471.47
2022-11-16T09:18:24.802Z,95469.47
2022-11-16T09:20:51.349Z,95470.69
2022-11-16T09:23:23.753Z,95476.28
2022-11-16T09:25:51.908Z,95469.25
2022-11-16T09:28:18.576Z,95465.47
2022-11-16T09:30:45.473Z,95467.56
2022-11-16T09:33:12.513Z,95474.00
2022-11-16T09:35:40.262Z,95474.91
2022-11-16T09:38:06.935Z,95465.13
2022-11-16T09:40:34.229Z,95451.78
2022-11-16T09:43:03.758Z,95449.56
2022-11-16T09:45:30.193Z,95454.13
2022-11-16T09:47:59.397Z,95448.53
2022-11-16T09:50:32.217Z,95438.25
2022-11-16T09:53:00.457Z,95436.72
2022-11-16T09:55:38.721Z,95430.19
2022-11-16T09:58:07.704Z,95426.78
2022-11-16T10:00:34.179Z,95426.53
2022-11-16T10:03:07.244Z,95420.19
2022-11-16T10:05:43.268Z,95414.81
2022-11-16T10:08:14.551Z,95413.03
2022-11-16T10:10:46.052Z,95410.53
2022-11-16T10:13:19.897Z,95408.38
2022-11-16T10:16:04.550Z,95398.03
2022-11-16T10:18:31.033Z,95395.44
2022-11-16T10:21:07.412Z,95393.03
2022-11-16T10:23:54.114Z,95389.25
2022-11-16T10:26:41.324Z,95387.66
2022-11-16T10:29:14.014Z,95385.69
2022-11-16T10:31:46.649Z,95388.72
2022-11-16T10:34:16.695Z,95373.63
2022-11-16T10:36:43.113Z,95363.88
2022-11-16T10:39:14.104Z,95357.97
2022-11-16T10:41:44.076Z,95350.47
2022-11-16T10:44:21.736Z,95345.28
2022-11-16T10:47:01.865Z,95345.69
2022-11-16T10:49:29.279Z,95349.19
2022-11-16T10:51:55.720Z,95352.84
2022-11-16T10:54:22.160Z,95346.09
2022-11-16T10:56:49.361Z,95262.28
2022-11-16T10:59:17.642Z,95349.44
2022-11-16T11:01:51.214Z,95343.31
2022-11-16T11:04:22.125Z,95337.56
2022-11-16T11:06:51.565Z,95339.38
2022-11-16T11:09:27.159Z,95346.94
2022-11-16T11:12:30.626Z,95342.41
2022-11-16T11:15:12.338Z,95343.75
2022-11-16T11:17:39.506Z,95344.09
2022-11-16T11:20:07.263Z,95341.09
2022-11-16T11:22:34.022Z,95341.66
2022-11-16T11:25:01.252Z,95347.59
2022-11-16T11:27:29.280Z,95346.91
2022-11-16T11:29:55.842Z,95342.28
2022-11-16T11:32:24.461Z,95341.22
2022-11-16T11:34:52.471Z,95345.16
2022-11-16T11:37:39.233Z,95342.31
2022-11-16T11:40:06.958Z,95355.91
2022-11-16T11:42:33.446Z,95354.84
2022-11-16T11:45:00.803Z,95349.41
2022-11-16T11:48:01.437Z,95338.69
2022-11-16T11:50:34.107Z,95344.50
2022-11-16T11:53:02.699Z,95331.22
2022-11-16T11:55:29.204Z,95341.31
2022-11-16T11:57:55.710Z,95336.41
2022-11-16T12:00:22.669Z,95332.94
2022-11-16T12:02:49.360Z,95340.88
2022-11-16T12:05:21.898Z,95347.66
2022-11-16T12:08:07.183Z,95345.41
2022-11-16T12:10:42.785Z,95343.13
2022-11-16T12:13:31.954Z,95342.56
2022-11-16T12:15:58.545Z,95336.84
2022-11-16T12:18:34.220Z,95334.34
2022-11-16T12:21:10.641Z,95336.41
2022-11-16T12:23:50.372Z,95345.84
2022-11-16T12:26:22.998Z,95338.34
2022-11-16T12:29:01.391Z,95337.97
2022-11-16T12:31:33.360Z,95331.72
2022-11-16T12:34:10.125Z,95327.94
2022-11-16T12:36:48.858Z,95321.03
2022-11-16T12:39:15.278Z,95321.44
2022-11-16T12:41:45.095Z,95324.72
2022-11-16T12:44:12.758Z,95317.66
2022-11-16T12:46:39.169Z,95321.59
2022-11-16T12:49:14.869Z,95324.16
2022-11-16T12:51:53.524Z,95325.41
2022-11-16T12:55:03.939Z,95325.59
2022-11-16T12:57:38.992Z,95323.81
2022-11-16T13:00:08.619Z,95324.78
2022-11-16T13:02:53.492Z,95310.88
2022-11-16T13:05:20.875Z,95316.69
2022-11-16T13:07:51.261Z,95315.53
2022-11-16T13:10:30.607Z,95317.16
2022-11-16T13:16:00.782Z,95307.41
2022-11-16T13:18:27.278Z,95307.41
2022-11-16T13:21:05.223Z,95310.66
2022-11-16T13:23:32.133Z,95305.19
2022-11-16T13:26:04.475Z,95306.88
2022-11-16T13:28:34.870Z,95306.41
2022-11-16T13:31:20.556Z,95310.31
2022-11-16T13:33:51.319Z,95305.81
2022-11-16T13:36:43.389Z,95300.84
2022-11-16T13:39:10.455Z,95303.28
2022-11-16T13:41:37.470Z,95306.19
2022-11-16T13:44:04.888Z,95308.66
2022-11-16T13:46:55.251Z,95301.88
2022-11-16T13:49:37.849Z,95300.09
2022-11-16T13:52:21.916Z,95300.75
2022-11-16T13:54:51.218Z,95292.03
2022-11-16T13:57:27.383Z,95297.00
2022-11-16T14:00:07.934Z,95294.59
2022-11-16T14:02:35.149Z,95280.34
2022-11-16T14:05:14.793Z,95283.28
2022-11-16T14:07:43.307Z,95283.91
2022-11-16T14:10:10.511Z,95299.41
2022-11-16T14:12:51.556Z,95279.72
2022-11-16T14:15:25.183Z,95283.75
2022-11-16T14:17:57.816Z,95285.00
2022-11-16T14:20:37.144Z,95286.97
2022-11-16T14:23:22.573Z,95284.72
2022-11-16T14:26:04.306Z,95280.53
2022-11-16T14:28:49.050Z,95276.00
2022-11-16T14:31:39.034Z,95278.13
2022-11-16T14:34:05.492Z,95283.00
2022-11-16T14:36:36.372Z,95268.97
2022-11-16T14:39:21.073Z,95275.75
2022-11-16T14:41:47.630Z,95273.81
2022-11-16T14:44:17.560Z,95281.41
2022-11-16T14:46:44.013Z,95274.78
2022-11-16T14:49:12.639Z,95278.69
2022-11-16T14:51:41.696Z,95282.06
2022-11-16T14:54:14.557Z,95273.72
2022-11-16T14:56:59.508Z,95275.13
2022-11-16T14:59:26.246Z,95271.13
2022-11-16T15:01:53.184Z,95278.88
2022-11-16T15:04:19.873Z,95281.78
2022-11-16T15:06:51.023Z,95277.59
2022-11-16T15:09:37.834Z,95282.09
2022-11-16T15:12:23.062Z,95277.28
2022-11-16T15:14:50.212Z,95284.38
2022-11-16T15:17:17.907Z,95277.47
2022-11-16T15:19:47.328Z,95284.88
2022-11-16T15:22:14.034Z,95282.78
2022-11-16T15:24:40.492Z,95278.47
2022-11-16T15:27:06.949Z,95275.41
2022-11-16T15:29:33.402Z,95292.84
2022-11-16T15:32:00.126Z,95285.72
2022-11-16T15:34:26.588Z,95289.28
2022-11-16T15:36:53.032Z,95285.09
2022-11-16T15:39:20.101Z,95284.00
2022-11-16T15:41:46.677Z,95288.06
2022-11-16T15:44:15.419Z,95288.88
2022-11-16T15:46:42.998Z,95289.66
2022-11-16T15:49:22.302Z,95285.47
2022-11-16T15:51:48.717Z,95286.59
2022-11-16T15:54:21.236Z,95288.44
2022-11-16T15:56:47.744Z,95283.28
2022-11-16T15:59:17.061Z,95284.56
2022-11-16T16:01:43.586Z,95279.59
2022-11-16T16:04:13.952Z,95275.59
2022-11-16T16:06:44.399Z,95276.88
2022-11-16T16:09:26.191Z,95282.06
2022-11-16T16:11:53.129Z,95283.84
2022-11-16T16:14:29.552Z,95269.94
2022-11-16T16:16:59.472Z,95282.41
2022-11-16T16:19:31.915Z,95271.28
2022-11-16T16:22:01.500Z,95271.91
2022-11-16T16:24:37.252Z,95272.38
2022-11-16T16:27:08.775Z,95271.91
2022-11-16T16:29:35.239Z,95272.09
2022-11-16T16:32:01.776Z,95272.41
2022-11-16T16:34:28.195Z,95266.44
2022-11-16T16:36:54.629Z,95262.56
2022-11-16T16:39:21.111Z,95270.31
2022-11-16T16:41:47.550Z,95266.94
2022-11-16T16:44:14.489Z,95266.13
2022-11-16T16:46:40.941Z,95265.97
2022-11-16T16:49:08.102Z,95255.31
2022-11-16T16:51:34.532Z,95262.44
2022-11-16T16:54:00.991Z,95255.31
2022-11-16T16:56:27.502Z,95250.63
2022-11-16T16:58:54.203Z,95254.00
2022-11-16T17:01:21.285Z,95250.31
2022-11-16T17:03:48.056Z,95249.53
2022-11-16T17:06:14.569Z,95241.59
2022-11-16T17:08:41.064Z,95245.34
2022-11-16T17:11:07.686Z,95246.28
2022-11-16T17:13:34.472Z,95174.09
2022-11-16T17:16:03.866Z,95252.91
2022-11-16T17:18:30.293Z,95252.28
2022-11-16T17:21:02.454Z,95252.66
2022-11-16T17:23:29.319Z,95251.00
2022-11-16T17:25:55.755Z,95241.66
2022-11-16T17:28:22.214Z,95242.16
2022-11-16T17:30:48.673Z,95239.75
2022-11-16T17:33:15.120Z,95242.94
2022-11-16T17:35:41.828Z,95243.13
2022-11-16T17:38:09.859Z,95247.63
2022-11-16T17:40:36.640Z,95247.81
2022-11-16T17:43:03.538Z,95251.53
2022-11-16T17:45:30.157Z,95248.28
2022-11-16T17:47:56.606Z,95240.25
2022-11-16T17:50:23.071Z,95239.47
2022-11-16T17:52:49.583Z,95241.56
2022-11-16T17:55:16.025Z,95235.78
2022-11-16T17:57:42.453Z,95235.47
2022-11-16T18:00:09.307Z,95237.56
2022-11-16T18:02:46.924Z,95230.00
2022-11-16T18:05:13.413Z,95230.19
2022-11-16T18:07:41.222Z,95229.81
2022-11-16T18:10:08.109Z,95229.19
2022-11-16T18:12:34.551Z,95235.47
2022-11-16T18:15:27.079Z,95230.00
2022-11-16T18:17:47.581Z,95228.38
2022-11-16T18:20:14.032Z,95200.22
2022-11-16T18:22:40.464Z,95232.41
2022-11-16T18:25:07.428Z,95232.44
2022-11-16T18:27:33.957Z,95235.84
2022-11-16T18:30:00.378Z,95237.31
2022-11-16T18:32:26.822Z,95227.78
2022-11-16T18:34:53.246Z,95234.25
2022-11-16T18:37:19.701Z,95235.38
2022-11-16T18:39:46.691Z,95234.91
2022-11-16T18:42:13.178Z,95229.44
2022-11-16T18:44:39.670Z,95235.88
2022-11-16T18:47:06.203Z,95227.31
2022-11-16T18:49:32.727Z,95232.47
2022-11-16T18:51:59.161Z,95233.94
2022-11-16T18:54:25.672Z,95232.47
2022-11-16T18:56:52.126Z,95230.06
2022-11-16T18:59:18.813Z,95231.06
2022-11-16T19:01:45.249Z,95244.25
2022-11-16T19:04:11.986Z,95229.41
2022-11-16T19:06:38.433Z,95222.34
2022-11-16T19:09:10.137Z,95224.28
2022-11-16T19:11:36.606Z,95228.63
2022-11-16T19:14:07.847Z,95223.81
2022-11-16T19:16:34.457Z,95219.13
2022-11-16T19:19:03.890Z,95222.66
2022-11-16T19:21:30.376Z,95227.50
2022-11-16T19:23:56.861Z,95223.66
2022-11-16T19:26:24.158Z,95223.31
2022-11-16T19:28:50.711Z,95229.09
2022-11-16T19:31:17.173Z,95227.97
2022-11-16T19:33:44.404Z,95223.31
2022-11-16T19:36:17.641Z,95222.84
2022-11-16T19:38:44.935Z,95226.22
2022-11-16T19:41:12.005Z,95224.91
2022-11-16T19:43:38.990Z,95232.81
2022-11-16T19:46:06.462Z,95225.25
2022-11-16T19:48:33.132Z,95220.41
2022-11-16T19:51:06.804Z,95223.16
2022-11-16T19:53:33.777Z,95219.78
2022-11-16T19:56:00.543Z,95218.16
2022-11-16T19:58:27.052Z,95217.03
2022-11-16T20:00:59.714Z,95225.09
2022-11-16T20:03:26.207Z,95225.22
2022-11-16T20:05:52.809Z,95220.56
2022-11-16T20:08:19.341Z,95224.13
2022-11-16T20:10:45.844Z,95225.22
2022-11-16T20:13:12.281Z,95220.88
2022-11-16T20:15:38.747Z,95220.25
2022-11-16T20:18:05.424Z,95227.47
2022-11-16T20:20:31.949Z,95218.31
2022-11-16T20:22:58.503Z,95218.97
2022-11-16T20:25:25.012Z,95223.63
2022-11-16T20:27:51.461Z,95227.31
2022-11-16T20:30:18.078Z,95220.03
2022-11-16T20:32:44.589Z,95221.00
2022-11-16T20:35:13.770Z,95215.25
2022-11-16T20:37:44.961Z,95213.31
2022-11-16T20:40:11.801Z,95216.56
2022-11-16T20:42:38.761Z,95217.03
2022-11-16T20:45:06.878Z,95220.72
2022-11-16T20:47:33.538Z,95213.50
2022-11-16T20:50:00.468Z,95219.88
2022-11-16T20:52:27.065Z,95222.44
2022-11-16T20:54:53.472Z,95216.00
2022-11-16T20:57:19.960Z,95215.84
2022-11-16T20:59:46.470Z,95202.16
2022-11-16T21:02:13.217Z,95204.91
2022-11-16T21:04:39.755Z,95203.31
2022-11-16T21:07:06.318Z,95196.22
2022-11-16T21:09:52.721Z,95198.63
2022-11-16T21:12:42.667Z,95201.19
2022-11-16T21:15:09.614Z,95198.97
2022-11-16T21:17:36.091Z,95198.16
2022-11-16T21:20:26.225Z,95203.94
2022-11-16T21:22:50.583Z,95201.38
2022-11-16T21:25:17.200Z,95199.75
2022-11-16T21:27:43.620Z,95193.81
2022-11-16T21:30:10.297Z,95200.09
2022-11-16T21:32:36.733Z,95198.81
2022-11-16T21:35:03.219Z,95199.94
2022-11-16T21:37:29.769Z,94975.69
2022-11-16T21:39:56.266Z,95195.28
2022-11-16T21:42:22.678Z,95197.53
2022-11-16T21:44:49.155Z,95197.03
2022-11-16T21:47:15.602Z,95200.09
2022-11-16T21:50:08.277Z,95191.53
2022-11-16T21:52:29.043Z,95198.97
2022-11-16T21:55:01.510Z,95203.94
2022-11-16T21:57:28.032Z,95197.53
2022-11-16T21:59:54.497Z,95196.06
2022-11-16T22:02:21.036Z,95199.44
2022-11-16T22:05:06.160Z,95199.94
2022-11-16T22:07:38.577Z,95195.59
2022-11-16T22:10:14.149Z,95193.81
2022-11-16T22:12:40.604Z,95189.47
2022-11-16T22:15:07.229Z,95187.22
2022-11-16T22:17:33.990Z,95190.75
2022-11-16T22:20:00.434Z,95185.47
2022-11-16T22:22:27.087Z,95189.47
2022-11-16T22:24:53.663Z,95183.69
2022-11-16T22:27:20.376Z,95188.03
2022-11-16T22:29:46.857Z,95183.84
2022-11-16T22:32:13.421Z,95187.06
2022-11-16T22:34:39.866Z,95192.38
2022-11-16T22:37:06.324Z,95182.72
2022-11-16T22:39:32.910Z,95188.81
2022-11-16T22:41:59.365Z,95181.91
2022-11-16T22:44:25.834Z,95182.09
2022-11-16T22:46:52.762Z,95176.25
2022-11-16T22:49:19.433Z,95174.84
2022-11-16T22:51:45.989Z,95172.25
2022-11-16T22:54:12.723Z,95171.44
2022-11-16T22:56:39.325Z,95172.09
2022-11-16T22:59:05.848Z,95173.06
2022-11-16T23:01:32.451Z,95175.31
2022-11-16T23:03:58.889Z,95172.38
2022-11-16T23:06:25.363Z,95166.75
2022-11-16T23:08:51.890Z,95169.47
2022-11-16T23:11:41.683Z,95167.56
2022-11-16T23:14:28.967Z,95157.75
2022-11-16T23:16:55.447Z,95156.50
2022-11-16T23:19:40.695Z,95166.16
2022-11-16T23:22:26.264Z,95156.00
2022-11-16T23:25:11.448Z,95161.81
2022-11-16T23:27:43.103Z,95165.31
2022-11-16T23:30:12.765Z,95165.31
2022-11-16T23:32:39.716Z,95163.41
2022-11-16T23:35:06.295Z,95166.59
2022-11-16T23:37:32.753Z,95159.38
2022-11-16T23:39:59.267Z,95160.81
2022-11-16T23:42:44.329Z,95147.47
2022-11-16T23:45:10.830Z,95152.16
2022-11-16T23:47:37.268Z,95147.94
2022-11-16T23:50:03.936Z,95145.38
2022-11-16T23:52:30.423Z,95145.53
2022-11-16T23:54:56.882Z,95138.16
2022-11-16T23:57:23.300Z,95142.50
2022-11-16T23:59:49.797Z,95137.81
